sensor_id;sensor_type;location;lat;lon;timestamp;P1;durP1;ratioP1;P2;durP2;ratioP2
18076;SDS011;9165;45.714;11.362;2023-01-08T00:00:50;18.43;;;10.87;;
18076;SDS011;9165;45.714;11.362;2023-01-08T00:03:17;17.50;;;10.37;;
18076;SDS011;9165;45.714;11.362;2023-01-08T00:05:43;19.07;;;11.50;;
18076;SDS011;9165;45.714;11.362;2023-01-08T00:08:10;18.97;;;10.20;;
18076;SDS011;9165;45.714;11.362;2023-01-08T00:10:37;16.53;;;9.93;;
18076;SDS011;9165;45.714;11.362;2023-01-08T00:13:04;15.27;;;9.87;;
18076;SDS011;9165;45.714;11.362;2023-01-08T00:15:33;20.97;;;11.87;;
18076;SDS011;9165;45.714;11.362;2023-01-08T00:17:59;17.67;;;10.97;;
18076;SDS011;9165;45.714;11.362;2023-01-08T00:20:26;20.17;;;11.53;;
18076;SDS011;9165;45.714;11.362;2023-01-08T00:22:52;19.57;;;10.50;;
18076;SDS011;9165;45.714;11.362;2023-01-08T00:25:19;19.30;;;11.97;;
18076;SDS011;9165;45.714;11.362;2023-01-08T00:27:45;23.20;;;11.47;;
18076;SDS011;9165;45.714;11.362;2023-01-08T00:30:12;21.97;;;11.33;;
18076;SDS011;9165;45.714;11.362;2023-01-08T00:32:40;19.50;;;11.03;;
18076;SDS011;9165;45.714;11.362;2023-01-08T00:35:07;18.77;;;11.10;;
18076;SDS011;9165;45.714;11.362;2023-01-08T00:37:33;18.07;;;10.73;;
18076;SDS011;9165;45.714;11.362;2023-01-08T00:40:00;21.47;;;12.40;;
18076;SDS011;9165;45.714;11.362;2023-01-08T00:42:27;26.00;;;11.60;;
18076;SDS011;9165;45.714;11.362;2023-01-08T00:44:53;26.77;;;12.57;;
18076;SDS011;9165;45.714;11.362;2023-01-08T00:47:20;22.37;;;11.40;;
18076;SDS011;9165;45.714;11.362;2023-01-08T00:49:48;18.57;;;11.87;;
18076;SDS011;9165;45.714;11.362;2023-01-08T00:52:14;22.07;;;12.60;;
18076;SDS011;9165;45.714;11.362;2023-01-08T00:54:41;24.37;;;12.10;;
18076;SDS011;9165;45.714;11.362;2023-01-08T00:57:07;23.53;;;11.67;;
18076;SDS011;9165;45.714;11.362;2023-01-08T00:59:34;19.63;;;11.57;;
18076;SDS011;9165;45.714;11.362;2023-01-08T01:02:00;20.07;;;11.53;;
18076;SDS011;9165;45.714;11.362;2023-01-08T01:04:27;16.20;;;10.30;;
18076;SDS011;9165;45.714;11.362;2023-01-08T01:06:55;18.40;;;10.97;;
18076;SDS011;9165;45.714;11.362;2023-01-08T01:09:22;19.57;;;10.77;;
18076;SDS011;9165;45.714;11.362;2023-01-08T01:11:48;19.97;;;9.80;;
18076;SDS011;9165;45.714;11.362;2023-01-08T01:14:15;19.20;;;10.50;;
18076;SDS011;9165;45.714;11.362;2023-01-08T01:16:42;17.83;;;10.10;;
18076;SDS011;9165;45.714;11.362;2023-01-08T01:19:08;16.03;;;9.07;;
18076;SDS011;9165;45.714;11.362;2023-01-08T01:21:35;18.67;;;10.70;;
18076;SDS011;9165;45.714;11.362;2023-01-08T01:24:04;18.37;;;9.77;;
18076;SDS011;9165;45.714;11.362;2023-01-08T01:26:31;18.93;;;9.70;;
18076;SDS011;9165;45.714;11.362;2023-01-08T01:28:58;21.50;;;10.50;;
18076;SDS011;9165;45.714;11.362;2023-01-08T01:31:25;21.10;;;10.60;;
18076;SDS011;9165;45.714;11.362;2023-01-08T01:33:52;22.70;;;11.33;;
18076;SDS011;9165;45.714;11.362;2023-01-08T01:36:20;21.67;;;10.77;;
18076;SDS011;9165;45.714;11.362;2023-01-08T01:38:48;16.53;;;9.63;;
18076;SDS011;9165;45.714;11.362;2023-01-08T01:41:20;17.17;;;9.60;;
18076;SDS011;9165;45.714;11.362;2023-01-08T01:43:48;19.40;;;10.53;;
18076;SDS011;9165;45.714;11.362;2023-01-08T01:46:17;15.60;;;9.70;;
18076;SDS011;9165;45.714;11.362;2023-01-08T01:48:45;17.90;;;9.30;;
18076;SDS011;9165;45.714;11.362;2023-01-08T01:51:13;19.47;;;11.33;;
18076;SDS011;9165;45.714;11.362;2023-01-08T01:53:40;18.43;;;9.73;;
18076;SDS011;9165;45.714;11.362;2023-01-08T01:56:07;19.13;;;9.93;;
18076;SDS011;9165;45.714;11.362;2023-01-08T01:58:35;17.27;;;10.30;;
18076;SDS011;9165;45.714;11.362;2023-01-08T02:01:03;22.30;;;11.40;;
18076;SDS011;9165;45.714;11.362;2023-01-08T02:03:32;17.60;;;10.77;;
18076;SDS011;9165;45.714;11.362;2023-01-08T02:06:01;20.53;;;10.70;;
18076;SDS011;9165;45.714;11.362;2023-01-08T02:08:30;19.53;;;11.73;;
18076;SDS011;9165;45.714;11.362;2023-01-08T02:11:02;20.30;;;11.93;;
18076;SDS011;9165;45.714;11.362;2023-01-08T02:13:32;22.17;;;12.03;;
18076;SDS011;9165;45.714;11.362;2023-01-08T02:16:02;21.73;;;11.77;;
18076;SDS011;9165;45.714;11.362;2023-01-08T02:18:35;17.83;;;11.40;;
18076;SDS011;9165;45.714;11.362;2023-01-08T02:21:04;18.80;;;10.37;;
18076;SDS011;9165;45.714;11.362;2023-01-08T02:23:33;21.40;;;11.47;;
18076;SDS011;9165;45.714;11.362;2023-01-08T02:26:13;15.50;;;9.50;;
18076;SDS011;9165;45.714;11.362;2023-01-08T02:28:42;17.43;;;10.17;;
18076;SDS011;9165;45.714;11.362;2023-01-08T02:31:09;19.13;;;10.50;;
18076;SDS011;9165;45.714;11.362;2023-01-08T02:33:37;17.23;;;9.30;;
18076;SDS011;9165;45.714;11.362;2023-01-08T02:39:00;18.50;;;11.07;;
18076;SDS011;9165;45.714;11.362;2023-01-08T02:41:31;21.40;;;11.20;;
18076;SDS011;9165;45.714;11.362;2023-01-08T02:44:01;20.93;;;11.60;;
18076;SDS011;9165;45.714;11.362;2023-01-08T02:46:29;19.50;;;10.30;;
18076;SDS011;9165;45.714;11.362;2023-01-08T02:48:59;16.73;;;10.33;;
18076;SDS011;9165;45.714;11.362;2023-01-08T02:51:27;16.67;;;10.30;;
18076;SDS011;9165;45.714;11.362;2023-01-08T02:53:56;18.33;;;9.20;;
18076;SDS011;9165;45.714;11.362;2023-01-08T02:56:25;19.97;;;11.13;;
18076;SDS011;9165;45.714;11.362;2023-01-08T02:58:54;17.30;;;9.33;;
18076;SDS011;9165;45.714;11.362;2023-01-08T03:01:22;19.03;;;9.83;;
18076;SDS011;9165;45.714;11.362;2023-01-08T03:03:51;16.70;;;9.20;;
18076;SDS011;9165;45.714;11.362;2023-01-08T03:06:19;15.80;;;9.33;;
18076;SDS011;9165;45.714;11.362;2023-01-08T03:08:47;15.30;;;9.27;;
18076;SDS011;9165;45.714;11.362;2023-01-08T03:11:14;14.67;;;9.00;;
18076;SDS011;9165;45.714;11.362;2023-01-08T03:13:44;14.23;;;8.27;;
18076;SDS011;9165;45.714;11.362;2023-01-08T03:16:14;17.17;;;10.03;;
18076;SDS011;9165;45.714;11.362;2023-01-08T03:18:43;15.93;;;8.90;;
18076;SDS011;9165;45.714;11.362;2023-01-08T03:21:11;15.13;;;8.80;;
18076;SDS011;9165;45.714;11.362;2023-01-08T03:23:38;15.93;;;8.57;;
18076;SDS011;9165;45.714;11.362;2023-01-08T03:26:06;18.40;;;9.80;;
18076;SDS011;9165;45.714;11.362;2023-01-08T03:28:33;17.27;;;9.50;;
18076;SDS011;9165;45.714;11.362;2023-01-08T03:31:01;17.07;;;9.83;;
18076;SDS011;9165;45.714;11.362;2023-01-08T03:33:29;16.77;;;9.37;;
18076;SDS011;9165;45.714;11.362;2023-01-08T03:35:57;17.57;;;9.30;;
18076;SDS011;9165;45.714;11.362;2023-01-08T03:38:25;16.67;;;9.60;;
18076;SDS011;9165;45.714;11.362;2023-01-08T03:40:53;15.83;;;10.07;;
18076;SDS011;9165;45.714;11.362;2023-01-08T03:43:21;18.67;;;10.07;;
18076;SDS011;9165;45.714;11.362;2023-01-08T03:45:49;17.67;;;9.83;;
18076;SDS011;9165;45.714;11.362;2023-01-08T03:48:17;16.33;;;9.23;;
18076;SDS011;9165;45.714;11.362;2023-01-08T03:50:46;14.67;;;8.73;;
18076;SDS011;9165;45.714;11.362;2023-01-08T03:53:13;18.70;;;10.57;;
18076;SDS011;9165;45.714;11.362;2023-01-08T03:55:40;15.83;;;9.03;;
18076;SDS011;9165;45.714;11.362;2023-01-08T03:58:06;16.37;;;9.67;;
18076;SDS011;9165;45.714;11.362;2023-01-08T04:00:33;16.90;;;9.33;;
18076;SDS011;9165;45.714;11.362;2023-01-08T04:02:59;17.33;;;9.57;;
18076;SDS011;9165;45.714;11.362;2023-01-08T04:05:26;17.43;;;9.77;;
18076;SDS011;9165;45.714;11.362;2023-01-08T04:07:55;18.10;;;10.07;;
18076;SDS011;9165;45.714;11.362;2023-01-08T04:10:22;18.47;;;10.40;;
18076;SDS011;9165;45.714;11.362;2023-01-08T04:12:48;17.80;;;9.73;;
18076;SDS011;9165;45.714;11.362;2023-01-08T04:15:15;18.60;;;10.27;;
18076;SDS011;9165;45.714;11.362;2023-01-08T04:17:41;14.97;;;9.40;;
18076;SDS011;9165;45.714;11.362;2023-01-08T04:20:08;20.40;;;9.63;;
18076;SDS011;9165;45.714;11.362;2023-01-08T04:22:35;17.57;;;10.10;;
18076;SDS011;9165;45.714;11.362;2023-01-08T04:25:03;17.10;;;10.00;;
18076;SDS011;9165;45.714;11.362;2023-01-08T04:27:30;18.10;;;9.93;;
18076;SDS011;9165;45.714;11.362;2023-01-08T04:29:57;21.50;;;9.80;;
18076;SDS011;9165;45.714;11.362;2023-01-08T04:32:23;18.93;;;9.93;;
18076;SDS011;9165;45.714;11.362;2023-01-08T04:34:50;18.27;;;9.60;;
18076;SDS011;9165;45.714;11.362;2023-01-08T04:37:16;15.90;;;10.40;;
18076;SDS011;9165;45.714;11.362;2023-01-08T04:39:43;17.47;;;9.63;;
18076;SDS011;9165;45.714;11.362;2023-01-08T04:42:11;17.40;;;9.63;;
18076;SDS011;9165;45.714;11.362;2023-01-08T04:44:37;20.87;;;10.87;;
18076;SDS011;9165;45.714;11.362;2023-01-08T04:47:04;23.87;;;11.43;;
18076;SDS011;9165;45.714;11.362;2023-01-08T04:49:30;15.97;;;9.47;;
18076;SDS011;9165;45.714;11.362;2023-01-08T04:51:57;19.50;;;10.73;;
18076;SDS011;9165;45.714;11.362;2023-01-08T04:54:23;20.57;;;10.23;;
18076;SDS011;9165;45.714;11.362;2023-01-08T04:56:50;23.93;;;11.87;;
18076;SDS011;9165;45.714;11.362;2023-01-08T04:59:18;18.67;;;10.70;;
18076;SDS011;9165;45.714;11.362;2023-01-08T05:01:45;20.90;;;11.17;;
18076;SDS011;9165;45.714;11.362;2023-01-08T05:04:11;21.03;;;10.93;;
18076;SDS011;9165;45.714;11.362;2023-01-08T05:06:38;20.33;;;11.90;;
18076;SDS011;9165;45.714;11.362;2023-01-08T05:09:04;19.53;;;11.33;;
18076;SDS011;9165;45.714;11.362;2023-01-08T05:11:31;23.80;;;11.67;;
18076;SDS011;9165;45.714;11.362;2023-01-08T05:13:58;20.10;;;11.47;;
18076;SDS011;9165;45.714;11.362;2023-01-08T05:16:25;21.23;;;11.83;;
18076;SDS011;9165;45.714;11.362;2023-01-08T05:18:52;20.30;;;11.03;;
18076;SDS011;9165;45.714;11.362;2023-01-08T05:21:19;20.87;;;11.03;;
18076;SDS011;9165;45.714;11.362;2023-01-08T05:23:46;21.43;;;11.60;;
18076;SDS011;9165;45.714;11.362;2023-01-08T05:26:13;24.03;;;12.23;;
18076;SDS011;9165;45.714;11.362;2023-01-08T05:28:39;23.73;;;12.53;;
18076;SDS011;9165;45.714;11.362;2023-01-08T05:31:06;22.90;;;11.90;;
18076;SDS011;9165;45.714;11.362;2023-01-08T05:33:34;22.77;;;11.60;;
18076;SDS011;9165;45.714;11.362;2023-01-08T05:36:02;22.37;;;12.70;;
18076;SDS011;9165;45.714;11.362;2023-01-08T05:38:29;22.93;;;11.53;;
18076;SDS011;9165;45.714;11.362;2023-01-08T05:40:55;22.83;;;12.97;;
18076;SDS011;9165;45.714;11.362;2023-01-08T05:43:22;21.37;;;11.03;;
18076;SDS011;9165;45.714;11.362;2023-01-08T05:45:49;22.40;;;11.97;;
18076;SDS011;9165;45.714;11.362;2023-01-08T05:48:15;25.07;;;11.70;;
18076;SDS011;9165;45.714;11.362;2023-01-08T05:50:43;19.07;;;10.20;;
18076;SDS011;9165;45.714;11.362;2023-01-08T05:53:10;18.87;;;11.17;;
18076;SDS011;9165;45.714;11.362;2023-01-08T05:55:37;21.83;;;11.47;;
18076;SDS011;9165;45.714;11.362;2023-01-08T05:58:04;20.83;;;11.17;;
18076;SDS011;9165;45.714;11.362;2023-01-08T06:00:31;26.17;;;11.67;;
18076;SDS011;9165;45.714;11.362;2023-01-08T06:02:58;21.03;;;11.90;;
18076;SDS011;9165;45.714;11.362;2023-01-08T06:05:24;18.47;;;11.27;;
18076;SDS011;9165;45.714;11.362;2023-01-08T06:07:52;25.50;;;11.73;;
18076;SDS011;9165;45.714;11.362;2023-01-08T06:10:19;20.33;;;10.60;;
18076;SDS011;9165;45.714;11.362;2023-01-08T06:12:45;24.33;;;11.87;;
18076;SDS011;9165;45.714;11.362;2023-01-08T06:15:12;26.43;;;12.00;;
18076;SDS011;9165;45.714;11.362;2023-01-08T06:17:39;22.60;;;11.57;;
18076;SDS011;9165;45.714;11.362;2023-01-08T06:20:05;23.53;;;12.57;;
18076;SDS011;9165;45.714;11.362;2023-01-08T06:22:33;26.63;;;13.17;;
18076;SDS011;9165;45.714;11.362;2023-01-08T06:25:01;623.65;;;149.93;;
18076;SDS011;9165;45.714;11.362;2023-01-08T06:27:27;622.15;;;135.07;;
18076;SDS011;9165;45.714;11.362;2023-01-08T06:29:54;617.33;;;131.60;;
18076;SDS011;9165;45.714;11.362;2023-01-08T06:32:20;622.78;;;133.15;;
18076;SDS011;9165;45.714;11.362;2023-01-08T06:34:47;34.33;;;11.87;;
18076;SDS011;9165;45.714;11.362;2023-01-08T06:37:13;21.93;;;12.47;;
18076;SDS011;9165;45.714;11.362;2023-01-08T06:39:40;45.77;;;22.57;;
18076;SDS011;9165;45.714;11.362;2023-01-08T06:42:08;26.07;;;12.50;;
18076;SDS011;9165;45.714;11.362;2023-01-08T06:44:34;20.90;;;11.67;;
18076;SDS011;9165;45.714;11.362;2023-01-08T06:47:01;20.83;;;10.90;;
18076;SDS011;9165;45.714;11.362;2023-01-08T06:49:28;22.17;;;11.47;;
18076;SDS011;9165;45.714;11.362;2023-01-08T06:51:54;20.73;;;12.27;;
18076;SDS011;9165;45.714;11.362;2023-01-08T06:54:21;22.93;;;13.00;;
18076;SDS011;9165;45.714;11.362;2023-01-08T06:56:48;24.90;;;13.20;;
18076;SDS011;9165;45.714;11.362;2023-01-08T06:59:16;20.20;;;11.97;;
18076;SDS011;9165;45.714;11.362;2023-01-08T07:01:42;25.20;;;13.27;;
18076;SDS011;9165;45.714;11.362;2023-01-08T07:04:09;23.23;;;12.47;;
18076;SDS011;9165;45.714;11.362;2023-01-08T07:06:35;22.03;;;12.90;;
18076;SDS011;9165;45.714;11.362;2023-01-08T07:09:02;24.00;;;12.40;;
18076;SDS011;9165;45.714;11.362;2023-01-08T07:11:28;23.13;;;12.63;;
18076;SDS011;9165;45.714;11.362;2023-01-08T07:13:55;27.37;;;14.43;;
18076;SDS011;9165;45.714;11.362;2023-01-08T07:16:24;25.37;;;14.30;;
18076;SDS011;9165;45.714;11.362;2023-01-08T07:18:50;26.03;;;13.10;;
18076;SDS011;9165;45.714;11.362;2023-01-08T07:21:17;26.80;;;13.40;;
18076;SDS011;9165;45.714;11.362;2023-01-08T07:23:46;24.50;;;13.90;;
18076;SDS011;9165;45.714;11.362;2023-01-08T07:26:13;25.67;;;14.37;;
18076;SDS011;9165;45.714;11.362;2023-01-08T07:28:40;25.90;;;14.90;;
18076;SDS011;9165;45.714;11.362;2023-01-08T07:31:07;26.30;;;14.33;;
18076;SDS011;9165;45.714;11.362;2023-01-08T07:33:35;26.23;;;14.47;;
18076;SDS011;9165;45.714;11.362;2023-01-08T07:36:01;27.33;;;15.23;;
18076;SDS011;9165;45.714;11.362;2023-01-08T07:38:28;29.00;;;14.77;;
18076;SDS011;9165;45.714;11.362;2023-01-08T07:40:55;32.43;;;16.40;;
18076;SDS011;9165;45.714;11.362;2023-01-08T07:43:22;26.03;;;14.83;;
18076;SDS011;9165;45.714;11.362;2023-01-08T07:45:49;27.60;;;13.73;;
18076;SDS011;9165;45.714;11.362;2023-01-08T07:48:15;22.40;;;13.30;;
18076;SDS011;9165;45.714;11.362;2023-01-08T07:50:43;25.60;;;13.57;;
18076;SDS011;9165;45.714;11.362;2023-01-08T07:53:10;25.87;;;13.57;;
18076;SDS011;9165;45.714;11.362;2023-01-08T07:55:37;27.77;;;14.23;;
18076;SDS011;9165;45.714;11.362;2023-01-08T07:58:07;23.87;;;13.90;;
18076;SDS011;9165;45.714;11.362;2023-01-08T08:00:34;27.27;;;14.70;;
18076;SDS011;9165;45.714;11.362;2023-01-08T08:03:02;27.23;;;15.40;;
18076;SDS011;9165;45.714;11.362;2023-01-08T08:05:29;31.63;;;16.20;;
18076;SDS011;9165;45.714;11.362;2023-01-08T08:07:56;26.33;;;15.37;;
18076;SDS011;9165;45.714;11.362;2023-01-08T08:10:23;32.27;;;16.00;;
18076;SDS011;9165;45.714;11.362;2023-01-08T08:12:50;31.10;;;15.10;;
18076;SDS011;9165;45.714;11.362;2023-01-08T08:15:16;26.03;;;15.93;;
18076;SDS011;9165;45.714;11.362;2023-01-08T08:17:43;31.43;;;15.83;;
18076;SDS011;9165;45.714;11.362;2023-01-08T08:20:10;27.47;;;15.90;;
18076;SDS011;9165;45.714;11.362;2023-01-08T08:22:37;28.80;;;15.97;;
18076;SDS011;9165;45.714;11.362;2023-01-08T08:25:05;30.47;;;14.97;;
18076;SDS011;9165;45.714;11.362;2023-01-08T08:27:32;26.37;;;15.47;;
18076;SDS011;9165;45.714;11.362;2023-01-08T08:29:58;32.57;;;17.30;;
18076;SDS011;9165;45.714;11.362;2023-01-08T08:32:25;30.23;;;15.97;;
18076;SDS011;9165;45.714;11.362;2023-01-08T08:34:51;27.60;;;16.50;;
18076;SDS011;9165;45.714;11.362;2023-01-08T08:37:18;28.77;;;15.77;;
18076;SDS011;9165;45.714;11.362;2023-01-08T08:39:44;29.73;;;16.47;;
18076;SDS011;9165;45.714;11.362;2023-01-08T08:42:12;26.87;;;16.23;;
18076;SDS011;9165;45.714;11.362;2023-01-08T08:44:39;31.97;;;16.87;;
18076;SDS011;9165;45.714;11.362;2023-01-08T08:47:06;30.90;;;17.60;;
18076;SDS011;9165;45.714;11.362;2023-01-08T08:49:33;30.03;;;16.10;;
18076;SDS011;9165;45.714;11.362;2023-01-08T08:52:00;33.90;;;16.40;;
18076;SDS011;9165;45.714;11.362;2023-01-08T08:54:27;29.27;;;17.70;;
18076;SDS011;9165;45.714;11.362;2023-01-08T08:56:53;30.67;;;16.00;;
18076;SDS011;9165;45.714;11.362;2023-01-08T08:59:21;30.93;;;15.93;;
18076;SDS011;9165;45.714;11.362;2023-01-08T09:01:48;33.53;;;17.40;;
18076;SDS011;9165;45.714;11.362;2023-01-08T09:04:14;31.63;;;17.07;;
18076;SDS011;9165;45.714;11.362;2023-01-08T09:06:41;34.90;;;19.40;;
18076;SDS011;9165;45.714;11.362;2023-01-08T09:09:07;34.07;;;17.57;;
18076;SDS011;9165;45.714;11.362;2023-01-08T09:11:34;29.33;;;16.60;;
18076;SDS011;9165;45.714;11.362;2023-01-08T09:14:00;29.37;;;17.73;;
18076;SDS011;9165;45.714;11.362;2023-01-08T09:16:28;32.73;;;18.13;;
18076;SDS011;9165;45.714;11.362;2023-01-08T09:18:57;31.67;;;17.40;;
18076;SDS011;9165;45.714;11.362;2023-01-08T09:21:23;30.90;;;17.77;;
18076;SDS011;9165;45.714;11.362;2023-01-08T09:23:50;34.70;;;18.17;;
18076;SDS011;9165;45.714;11.362;2023-01-08T09:26:16;38.40;;;17.83;;
18076;SDS011;9165;45.714;11.362;2023-01-08T09:28:43;32.90;;;18.77;;
18076;SDS011;9165;45.714;11.362;2023-01-08T09:31:09;35.83;;;24.00;;
18076;SDS011;9165;45.714;11.362;2023-01-08T09:33:37;32.10;;;18.07;;
18076;SDS011;9165;45.714;11.362;2023-01-08T09:36:07;33.50;;;17.83;;
18076;SDS011;9165;45.714;11.362;2023-01-08T09:38:33;32.10;;;18.23;;
18076;SDS011;9165;45.714;11.362;2023-01-08T09:41:00;31.03;;;18.67;;
18076;SDS011;9165;45.714;11.362;2023-01-08T09:43:31;35.10;;;19.23;;
18076;SDS011;9165;45.714;11.362;2023-01-08T09:46:00;34.03;;;19.37;;
18076;SDS011;9165;45.714;11.362;2023-01-08T09:48:28;30.83;;;19.00;;
18076;SDS011;9165;45.714;11.362;2023-01-08T09:50:57;33.50;;;18.40;;
18076;SDS011;9165;45.714;11.362;2023-01-08T09:53:24;33.57;;;18.90;;
18076;SDS011;9165;45.714;11.362;2023-01-08T09:55:53;34.67;;;20.33;;
18076;SDS011;9165;45.714;11.362;2023-01-08T09:58:22;34.70;;;19.33;;
18076;SDS011;9165;45.714;11.362;2023-01-08T10:00:49;35.77;;;18.67;;
18076;SDS011;9165;45.714;11.362;2023-01-08T10:03:16;29.30;;;19.83;;
18076;SDS011;9165;45.714;11.362;2023-01-08T10:05:43;35.87;;;20.17;;
18076;SDS011;9165;45.714;11.362;2023-01-08T10:08:11;41.47;;;21.57;;
18076;SDS011;9165;45.714;11.362;2023-01-08T10:10:39;37.07;;;22.17;;
18076;SDS011;9165;45.714;11.362;2023-01-08T10:13:07;40.77;;;21.50;;
18076;SDS011;9165;45.714;11.362;2023-01-08T10:15:35;41.43;;;23.63;;
18076;SDS011;9165;45.714;11.362;2023-01-08T10:18:02;39.53;;;21.60;;
18076;SDS011;9165;45.714;11.362;2023-01-08T10:20:30;38.27;;;18.97;;
18076;SDS011;9165;45.714;11.362;2023-01-08T10:22:56;35.87;;;18.73;;
18076;SDS011;9165;45.714;11.362;2023-01-08T10:25:45;38.40;;;20.77;;
18076;SDS011;9165;45.714;11.362;2023-01-08T10:28:14;35.43;;;19.10;;
18076;SDS011;9165;45.714;11.362;2023-01-08T10:30:43;36.53;;;18.90;;
18076;SDS011;9165;45.714;11.362;2023-01-08T10:33:10;33.87;;;20.17;;
18076;SDS011;9165;45.714;11.362;2023-01-08T10:35:39;37.57;;;20.57;;
18076;SDS011;9165;45.714;11.362;2023-01-08T10:38:20;34.93;;;19.00;;
18076;SDS011;9165;45.714;11.362;2023-01-08T10:40:50;37.83;;;21.40;;
18076;SDS011;9165;45.714;11.362;2023-01-08T10:43:17;30.37;;;17.27;;
18076;SDS011;9165;45.714;11.362;2023-01-08T10:45:53;33.47;;;19.63;;
18076;SDS011;9165;45.714;11.362;2023-01-08T10:48:20;35.70;;;18.37;;
18076;SDS011;9165;45.714;11.362;2023-01-08T10:50:47;32.87;;;18.40;;
18076;SDS011;9165;45.714;11.362;2023-01-08T10:53:23;31.07;;;17.60;;
18076;SDS011;9165;45.714;11.362;2023-01-08T10:55:57;35.03;;;18.50;;
18076;SDS011;9165;45.714;11.362;2023-01-08T10:58:24;29.03;;;17.70;;
18076;SDS011;9165;45.714;11.362;2023-01-08T11:00:50;27.90;;;17.20;;
18076;SDS011;9165;45.714;11.362;2023-01-08T11:03:19;28.67;;;16.07;;
18076;SDS011;9165;45.714;11.362;2023-01-08T11:05:46;41.23;;;24.20;;
18076;SDS011;9165;45.714;11.362;2023-01-08T11:08:14;34.07;;;19.43;;
18076;SDS011;9165;45.714;11.362;2023-01-08T11:10:41;26.27;;;15.37;;
18076;SDS011;9165;45.714;11.362;2023-01-08T11:13:15;24.60;;;14.23;;
18076;SDS011;9165;45.714;11.362;2023-01-08T11:15:42;28.20;;;16.43;;
18076;SDS011;9165;45.714;11.362;2023-01-08T11:18:15;22.00;;;12.30;;
18076;SDS011;9165;45.714;11.362;2023-01-08T11:20:43;20.80;;;11.77;;
18076;SDS011;9165;45.714;11.362;2023-01-08T11:23:16;21.77;;;13.47;;
18076;SDS011;9165;45.714;11.362;2023-01-08T11:25:44;25.93;;;13.70;;
18076;SDS011;9165;45.714;11.362;2023-01-08T11:28:15;24.13;;;14.43;;
18076;SDS011;9165;45.714;11.362;2023-01-08T11:30:47;21.90;;;12.20;;
18076;SDS011;9165;45.714;11.362;2023-01-08T11:33:17;27.00;;;13.30;;
18076;SDS011;9165;45.714;11.362;2023-01-08T11:35:45;23.73;;;13.10;;
18076;SDS011;9165;45.714;11.362;2023-01-08T11:38:14;27.17;;;15.00;;
18076;SDS011;9165;45.714;11.362;2023-01-08T11:40:41;30.97;;;17.03;;
18076;SDS011;9165;45.714;11.362;2023-01-08T11:43:11;28.87;;;17.43;;
18076;SDS011;9165;45.714;11.362;2023-01-08T11:45:46;32.17;;;18.33;;
18076;SDS011;9165;45.714;11.362;2023-01-08T11:48:18;35.20;;;17.37;;
18076;SDS011;9165;45.714;11.362;2023-01-08T11:50:57;34.53;;;20.27;;
18076;SDS011;9165;45.714;11.362;2023-01-08T11:53:28;36.60;;;20.87;;
18076;SDS011;9165;45.714;11.362;2023-01-08T11:56:00;32.03;;;19.33;;
18076;SDS011;9165;45.714;11.362;2023-01-08T11:58:36;37.43;;;18.73;;
18076;SDS011;9165;45.714;11.362;2023-01-08T12:01:12;33.40;;;19.03;;
18076;SDS011;9165;45.714;11.362;2023-01-08T12:03:43;32.30;;;18.30;;
18076;SDS011;9165;45.714;11.362;2023-01-08T12:06:17;31.93;;;17.87;;
18076;SDS011;9165;45.714;11.362;2023-01-08T12:08:49;32.13;;;17.77;;
18076;SDS011;9165;45.714;11.362;2023-01-08T12:11:21;32.47;;;18.13;;
18076;SDS011;9165;45.714;11.362;2023-01-08T12:13:52;32.83;;;17.20;;
18076;SDS011;9165;45.714;11.362;2023-01-08T12:16:32;29.93;;;16.83;;
18076;SDS011;9165;45.714;11.362;2023-01-08T12:19:13;31.70;;;19.13;;
18076;SDS011;9165;45.714;11.362;2023-01-08T12:21:44;37.23;;;19.10;;
18076;SDS011;9165;45.714;11.362;2023-01-08T12:24:17;38.20;;;18.73;;
18076;SDS011;9165;45.714;11.362;2023-01-08T12:26:48;34.77;;;19.87;;
18076;SDS011;9165;45.714;11.362;2023-01-08T12:29:36;36.83;;;20.27;;
18076;SDS011;9165;45.714;11.362;2023-01-08T12:32:09;33.10;;;19.47;;
18076;SDS011;9165;45.714;11.362;2023-01-08T12:34:42;38.63;;;19.57;;
18076;SDS011;9165;45.714;11.362;2023-01-08T12:37:12;41.97;;;20.83;;
18076;SDS011;9165;45.714;11.362;2023-01-08T12:39:42;51.47;;;24.43;;
18076;SDS011;9165;45.714;11.362;2023-01-08T12:42:12;47.30;;;24.17;;
18076;SDS011;9165;45.714;11.362;2023-01-08T12:44:39;36.13;;;20.57;;
18076;SDS011;9165;45.714;11.362;2023-01-08T12:47:06;37.47;;;20.50;;
18076;SDS011;9165;45.714;11.362;2023-01-08T12:49:37;34.70;;;18.97;;
18076;SDS011;9165;45.714;11.362;2023-01-08T12:52:07;38.77;;;20.17;;
18076;SDS011;9165;45.714;11.362;2023-01-08T12:54:39;37.40;;;20.57;;
18076;SDS011;9165;45.714;11.362;2023-01-08T12:57:13;39.97;;;20.63;;
18076;SDS011;9165;45.714;11.362;2023-01-08T12:59:43;33.90;;;19.50;;
18076;SDS011;9165;45.714;11.362;2023-01-08T13:02:14;34.87;;;19.93;;
18076;SDS011;9165;45.714;11.362;2023-01-08T13:04:43;37.70;;;20.73;;
18076;SDS011;9165;45.714;11.362;2023-01-08T13:07:10;31.17;;;18.03;;
18076;SDS011;9165;45.714;11.362;2023-01-08T13:09:37;36.43;;;19.53;;
18076;SDS011;9165;45.714;11.362;2023-01-08T13:12:04;53.40;;;31.33;;
18076;SDS011;9165;45.714;11.362;2023-01-08T13:14:38;38.53;;;22.47;;
18076;SDS011;9165;45.714;11.362;2023-01-08T13:17:06;32.63;;;18.93;;
18076;SDS011;9165;45.714;11.362;2023-01-08T13:19:42;34.43;;;18.40;;
18076;SDS011;9165;45.714;11.362;2023-01-08T13:22:20;36.87;;;18.67;;
18076;SDS011;9165;45.714;11.362;2023-01-08T13:24:48;29.37;;;16.40;;
18076;SDS011;9165;45.714;11.362;2023-01-08T13:27:27;52.07;;;29.83;;
18076;SDS011;9165;45.714;11.362;2023-01-08T13:29:54;39.73;;;23.47;;
18076;SDS011;9165;45.714;11.362;2023-01-08T13:32:23;29.30;;;17.07;;
18076;SDS011;9165;45.714;11.362;2023-01-08T13:35:01;32.63;;;18.57;;
18076;SDS011;9165;45.714;11.362;2023-01-08T13:37:28;34.00;;;17.93;;
18076;SDS011;9165;45.714;11.362;2023-01-08T13:39:54;28.77;;;17.57;;
18076;SDS011;9165;45.714;11.362;2023-01-08T13:42:22;31.07;;;18.00;;
18076;SDS011;9165;45.714;11.362;2023-01-08T13:44:55;31.87;;;18.47;;
18076;SDS011;9165;45.714;11.362;2023-01-08T13:47:24;53.77;;;32.30;;
18076;SDS011;9165;45.714;11.362;2023-01-08T13:49:52;39.17;;;20.80;;
18076;SDS011;9165;45.714;11.362;2023-01-08T13:55:12;28.60;;;18.03;;
18076;SDS011;9165;45.714;11.362;2023-01-08T13:57:40;71.37;;;32.10;;
18076;SDS011;9165;45.714;11.362;2023-01-08T14:00:12;33.57;;;18.13;;
18076;SDS011;9165;45.714;11.362;2023-01-08T14:02:43;39.13;;;20.03;;
18076;SDS011;9165;45.714;11.362;2023-01-08T14:05:18;34.03;;;18.87;;
18076;SDS011;9165;45.714;11.362;2023-01-08T14:07:45;26.23;;;16.30;;
18076;SDS011;9165;45.714;11.362;2023-01-08T14:10:14;35.97;;;19.00;;
18076;SDS011;9165;45.714;11.362;2023-01-08T14:12:41;48.10;;;29.87;;
18076;SDS011;9165;45.714;11.362;2023-01-08T14:15:08;38.47;;;22.57;;
18076;SDS011;9165;45.714;11.362;2023-01-08T14:17:35;35.67;;;21.57;;
18076;SDS011;9165;45.714;11.362;2023-01-08T14:20:07;45.77;;;26.50;;
18076;SDS011;9165;45.714;11.362;2023-01-08T14:22:34;34.27;;;20.60;;
18076;SDS011;9165;45.714;11.362;2023-01-08T14:25:02;29.63;;;19.03;;
18076;SDS011;9165;45.714;11.362;2023-01-08T14:27:31;34.53;;;21.03;;
18076;SDS011;9165;45.714;11.362;2023-01-08T14:29:58;32.03;;;20.03;;
18076;SDS011;9165;45.714;11.362;2023-01-08T14:32:26;25.97;;;17.43;;
18076;SDS011;9165;45.714;11.362;2023-01-08T14:34:53;29.70;;;17.93;;